Time;durP1;ratioP1;P1;durP2;ratioP2;P2;SDS_P1;SDS_P2;PMS_P1;PMS_P2;Temp;Humidity;BMP_temperature;BMP_pressure;BME280_temperature;BME280_humidity;BME280_pressure;Samples;Min_cycle;Max_cycle;Signal;HPM_P1;HPM_P2
2023/07/27 00:02:07;;;;;;;5.95;4.00;;;15.50;99.90;;;;;;5051423;28;20036;-55
2023/07/27 00:04:32;;;;;;;7.63;3.50;;;15.50;99.90;;;;;;5051237;28;20033;-50
2023/07/27 00:06:58;;;;;;;5.25;4.10;;;15.50;99.90;;;;;;5051410;28;20195;-53
2023/07/27 00:09:23;;;;;;;5.85;4.18;;;15.60;99.90;;;;;;5051130;28;20029;-54
2023/07/27 00:11:49;;;;;;;6.88;4.28;;;15.50;99.90;;;;;;5051374;28;20036;-55
2023/07/27 00:14:14;;;;;;;5.88;4.38;;;15.60;99.90;;;;;;5051670;28;20051;-53
2023/07/27 00:16:40;;;;;;;7.55;3.83;;;15.60;99.90;;;;;;5033559;28;20033;-52
2023/07/27 00:19:05;;;;;;;4.88;4.00;;;15.60;99.90;;;;;;5046496;22;20136;-46
2023/07/27 00:21:31;;;;;;;7.97;4.72;;;15.60;99.90;;;;;;5010723;28;20028;-47
2023/07/27 00:23:57;;;;;;;5.90;4.82;;;15.70;99.90;;;;;;5011505;28;20076;-46
2023/07/27 00:26:22;;;;;;;7.78;4.95;;;15.70;99.90;;;;;;5011629;28;20029;-47
2023/07/27 00:28:48;;;;;;;5.72;3.88;;;15.70;99.90;;;;;;5008155;28;20031;-49
2023/07/27 00:31:13;;;;;;;8.23;4.07;;;15.80;99.90;;;;;;4990509;28;20033;-47
2023/07/27 00:33:39;;;;;;;5.40;4.22;;;15.70;99.90;;;;;;4990616;28;20023;-47
2023/07/27 00:36:04;;;;;;;6.70;4.30;;;15.70;99.90;;;;;;4990491;28;20482;-50
2023/07/27 00:38:30;;;;;;;8.25;4.75;;;15.80;99.90;;;;;;4991494;28;20026;-47
2023/07/27 00:40:56;;;;;;;6.38;4.20;;;15.80;99.90;;;;;;4991926;28;20023;-47
2023/07/27 00:43:21;;;;;;;7.72;4.32;;;15.80;99.90;;;;;;4990660;28;20126;-49
2023/07/27 00:45:48;;;;;;;5.05;4.55;;;15.80;99.90;;;;;;4991712;28;20147;-49
2023/07/27 00:48:14;;;;;;;7.28;4.15;;;15.80;99.90;;;;;;4991581;28;20024;-44
2023/07/27 00:50:40;;;;;;;7.18;4.45;;;15.70;99.90;;;;;;4990499;28;20497;-47
2023/07/27 00:53:08;;;;;;;6.80;4.55;;;15.70;99.90;;;;;;4990473;28;20036;-48
2023/07/27 00:55:34;;;;;;;5.97;4.70;;;15.70;99.90;;;;;;4991742;28;20081;-47
2023/07/27 00:58:01;;;;;;;5.80;4.35;;;15.80;99.90;;;;;;4991377;28;20056;-48
2023/07/27 01:00:27;;;;;;;7.05;3.75;;;15.80;99.90;;;;;;4991943;28;20033;-50
2023/07/27 01:02:53;;;;;;;5.68;4.50;;;15.80;99.90;;;;;;4992202;28;20034;-51
2023/07/27 01:05:19;;;;;;;5.43;4.18;;;15.80;99.90;;;;;;4995245;28;20449;-52
2023/07/27 01:07:45;;;;;;;13.48;4.32;;;15.80;99.90;;;;;;4995251;28;20026;-50
2023/07/27 01:10:11;;;;;;;8.43;4.38;;;15.80;99.90;;;;;;4995294;28;20077;-49
2023/07/27 01:12:56;;;;;;;5.47;4.30;;;15.80;99.90;;;;;;4995326;28;20498;-51
2023/07/27 01:15:26;;;;;;;5.60;4.20;;;15.80;99.90;;;;;;4995275;28;20547;-52
2023/07/27 01:18:03;;;;;;;8.45;4.18;;;15.80;99.90;;;;;;4994802;28;20773;-51
2023/07/27 01:20:47;;;;;;;7.82;4.00;;;15.90;99.90;;;;;;4994678;28;20054;-50
2023/07/27 01:23:37;;;;;;;6.65;4.13;;;15.80;99.90;;;;;;4995207;28;20433;-49
2023/07/27 01:26:24;;;;;;;5.53;3.97;;;15.80;99.90;;;;;;4994961;28;20022;-49
2023/07/27 01:28:58;;;;;;;8.85;5.10;;;15.80;99.90;;;;;;4994840;28;20103;-48
2023/07/27 01:31:26;;;;;;;7.53;4.55;;;15.90;99.90;;;;;;4995032;28;20061;-51
2023/07/27 01:34:00;;;;;;;6.18;4.10;;;15.80;99.90;;;;;;4994802;28;20034;-50
2023/07/27 01:36:30;;;;;;;5.82;4.25;;;15.80;99.90;;;;;;4994753;28;20679;-53
2023/07/27 01:39:02;;;;;;;6.90;4.07;;;15.80;99.90;;;;;;4994473;28;20030;-50
2023/07/27 01:41:29;;;;;;;13.77;5.32;;;15.80;99.90;;;;;;4994690;28;20393;-48
2023/07/27 01:43:56;;;;;;;6.22;4.65;;;15.80;99.90;;;;;;4994674;28;20037;-48
2023/07/27 01:46:22;;;;;;;7.75;4.55;;;15.70;99.90;;;;;;4994757;28;20026;-51
2023/07/27 01:48:49;;;;;;;7.63;4.45;;;15.70;99.90;;;;;;4993171;28;20375;-48
2023/07/27 01:51:16;;;;;;;7.57;4.30;;;15.70;99.90;;;;;;4995050;28;20105;-50
2023/07/27 01:53:43;;;;;;;4.15;3.40;;;15.70;99.90;;;;;;4994508;28;20095;-50
2023/07/27 01:56:11;;;;;;;5.70;3.95;;;15.80;99.90;;;;;;4993221;28;20109;-49
2023/07/27 01:58:37;;;;;;;6.00;3.97;;;15.80;99.90;;;;;;4992898;28;20032;-51
2023/07/27 02:01:03;;;;;;;11.23;4.97;;;15.80;99.90;;;;;;4994640;28;20032;-50
2023/07/27 02:03:29;;;;;;;4.57;3.70;;;15.70;99.90;;;;;;4994290;28;20393;-52
2023/07/27 02:05:56;;;;;;;10.15;3.97;;;15.70;99.90;;;;;;4994403;28;20026;-47
2023/07/27 02:08:22;;;;;;;5.57;3.42;;;15.70;99.90;;;;;;4994528;28;20106;-50
2023/07/27 02:10:54;;;;;;;5.28;3.97;;;15.70;99.90;;;;;;4994303;28;20530;-50
2023/07/27 02:13:29;;;;;;;5.45;4.00;;;15.70;99.90;;;;;;4994087;28;20034;-50
2023/07/27 02:16:30;;;;;;;9.55;3.83;;;15.70;99.90;;;;;;4992977;28;20038;-52
2023/07/27 02:18:58;;;;;;;5.00;4.05;;;15.80;99.90;;;;;;4993635;28;20038;-50
2023/07/27 02:21:25;;;;;;;4.47;3.67;;;15.70;99.90;;;;;;4993737;28;20030;-53
2023/07/27 02:23:52;;;;;;;4.40;3.35;;;15.60;99.90;;;;;;4993701;28;20041;-52
2023/07/27 02:26:18;;;;;;;4.80;4.30;;;15.70;99.90;;;;;;4993713;28;20037;-51
2023/07/27 02:28:43;;;;;;;5.18;3.65;;;15.60;99.90;;;;;;4992309;28;20046;-53
2023/07/27 02:31:09;;;;;;;9.90;4.25;;;15.70;99.90;;;;;;4993814;28;20447;-49
2023/07/27 02:33:34;;;;;;;8.90;3.75;;;15.70;99.90;;;;;;4993935;28;20516;-47
2023/07/27 02:36:00;;;;;;;4.32;3.55;;;15.60;99.90;;;;;;4992332;28;20026;-51
2023/07/27 02:38:25;;;;;;;6.75;3.63;;;15.60;99.90;;;;;;4993256;28;20034;-51
2023/07/27 02:40:51;;;;;;;4.22;3.80;;;15.60;99.90;;;;;;4992403;28;20033;-50
2023/07/27 02:43:18;;;;;;;5.63;3.05;;;15.70;99.90;;;;;;4992061;28;20049;-48
2023/07/27 02:45:43;;;;;;;3.95;3.50;;;15.60;99.90;;;;;;4993540;28;20026;-49
2023/07/27 02:48:09;;;;;;;5.80;3.90;;;15.60;99.90;;;;;;4993543;28;20446;-54
2023/07/27 02:50:34;;;;;;;6.07;3.75;;;15.60;99.90;;;;;;4993297;28;20394;-49
2023/07/27 02:53:00;;;;;;;7.28;3.47;;;15.70;99.90;;;;;;4992083;28;20030;-48
2023/07/27 02:55:25;;;;;;;6.07;3.40;;;15.70;99.90;;;;;;4993298;28;20034;-51
2023/07/27 02:57:50;;;;;;;5.65;3.40;;;15.70;99.90;;;;;;4993086;28;20058;-48
2023/07/27 03:00:16;;;;;;;6.43;3.88;;;15.70;99.90;;;;;;4993531;28;20541;-48
2023/07/27 03:02:41;;;;;;;10.10;3.60;;;15.70;99.90;;;;;;4993177;28;20046;-50
2023/07/27 03:05:07;;;;;;;5.32;3.58;;;15.70;99.90;;;;;;4993093;28;20502;-47
2023/07/27 03:07:33;;;;;;;4.93;3.30;;;15.80;99.90;;;;;;4992659;28;20109;-48
2023/07/27 03:09:58;;;;;;;5.63;3.67;;;15.80;99.90;;;;;;4993020;28;20022;-50
2023/07/27 03:12:24;;;;;;;5.90;3.55;;;15.80;99.90;;;;;;4992976;28;20029;-49
2023/07/27 03:14:49;;;;;;;3.97;3.33;;;15.80;99.90;;;;;;4992967;28;20033;-51
2023/07/27 03:17:15;;;;;;;5.82;3.15;;;15.80;99.90;;;;;;4992730;28;20030;-49
2023/07/27 03:19:41;;;;;;;5.03;3.83;;;15.80;99.90;;;;;;4990861;28;20511;-51
2023/07/27 03:22:06;;;;;;;9.05;4.25;;;15.80;99.90;;;;;;4991570;28;20030;-52
2023/07/27 03:24:32;;;;;;;7.55;3.42;;;15.80;99.90;;;;;;4991441;28;20049;-50
2023/07/27 03:26:58;;;;;;;4.65;3.90;;;15.80;99.90;;;;;;4992254;28;20080;-53
2023/07/27 03:29:23;;;;;;;6.53;3.95;;;15.80;99.90;;;;;;4992692;28;20022;-50
2023/07/27 03:31:49;;;;;;;6.82;3.45;;;15.80;99.90;;;;;;4991353;28;20033;-51
2023/07/27 03:34:14;;;;;;;5.90;3.25;;;15.80;99.90;;;;;;4991220;28;20029;-48
2023/07/27 03:36:41;;;;;;;12.27;3.78;;;15.80;99.90;;;;;;4992425;28;20421;-50
2023/07/27 03:39:07;;;;;;;7.47;3.78;;;15.80;99.90;;;;;;4992232;28;20022;-50
2023/07/27 03:41:32;;;;;;;7.80;4.80;;;15.80;99.90;;;;;;4992417;28;20040;-54
2023/07/27 03:43:58;;;;;;;8.02;3.35;;;15.80;99.90;;;;;;4992463;28;20038;-50
2023/07/27 03:46:23;;;;;;;6.30;3.42;;;15.80;99.90;;;;;;4992385;28;20365;-50
2023/07/27 03:48:50;;;;;;;5.45;3.55;;;15.80;99.90;;;;;;4991954;28;20025;-48
2023/07/27 03:51:16;;;;;;;5.25;3.13;;;15.80;99.90;;;;;;4992898;28;20097;-51
2023/07/27 03:53:41;;;;;;;6.38;4.30;;;15.80;99.90;;;;;;4992303;28;20030;-53
2023/07/27 03:56:08;;;;;;;5.53;3.47;;;15.80;99.90;;;;;;4992223;28;20037;-50
2023/07/27 03:58:33;;;;;;;5.50;3.50;;;15.80;99.90;;;;;;4991916;28;20084;-51
2023/07/27 04:00:59;;;;;;;5.15;3.65;;;15.80;99.90;;;;;;4992353;28;20109;-51
2023/07/27 04:03:25;;;;;;;3.50;3.20;;;15.80;99.90;;;;;;4992035;28;20031;-54
2023/07/27 04:05:51;;;;;;;5.40;3.22;;;15.70;99.90;;;;;;4992204;28;20023;-53
2023/07/27 04:08:17;;;;;;;3.20;2.90;;;15.80;99.90;;;;;;4992001;28;20575;-50
2023/07/27 04:10:43;;;;;;;7.82;4.13;;;15.70;99.90;;;;;;4992023;28;20022;-52
2023/07/27 04:13:10;;;;;;;5.45;3.25;;;15.80;99.90;;;;;;4992273;28;20023;-51
2023/07/27 04:15:37;;;;;;;4.95;3.40;;;15.80;99.90;;;;;;4992024;28;20096;-47
2023/07/27 04:18:04;;;;;;;4.88;3.55;;;15.80;99.90;;;;;;4990504;28;20473;-47
2023/07/27 04:20:29;;;;;;;5.03;3.72;;;15.80;99.90;;;;;;4991705;28;20031;-52
2023/07/27 04:22:55;;;;;;;4.93;3.25;;;15.80;99.90;;;;;;4992028;28;20027;-53
2023/07/27 04:25:20;;;;;;;6.80;4.15;;;15.80;99.90;;;;;;4991879;28;20034;-53
2023/07/27 04:27:46;;;;;;;5.22;3.42;;;15.80;99.90;;;;;;4991813;28;20029;-48
2023/07/27 04:30:11;;;;;;;6.10;3.70;;;15.70;99.90;;;;;;4991994;28;20030;-50
2023/07/27 04:32:37;;;;;;;7.00;3.45;;;15.80;99.90;;;;;;4991993;28;20030;-50
2023/07/27 04:35:03;;;;;;;6.85;3.88;;;15.70;99.90;;;;;;4991960;28;20081;-54
2023/07/27 04:37:28;;;;;;;4.93;3.45;;;15.80;99.90;;;;;;4991702;28;20077;-51
2023/07/27 04:39:54;;;;;;;3.72;3.35;;;15.80;99.90;;;;;;4995752;28;20064;-48
2023/07/27 04:42:19;;;;;;;7.10;3.42;;;15.80;99.90;;;;;;4995751;28;20033;-50
2023/07/27 04:44:45;;;;;;;3.30;3.00;;;15.80;99.90;;;;;;4994329;28;20023;-52
2023/07/27 04:47:10;;;;;;;7.20;3.95;;;15.80;99.90;;;;;;4995696;28;20027;-50
2023/07/27 04:49:36;;;;;;;3.63;3.08;;;15.80;99.90;;;;;;4995371;28;20018;-50
2023/07/27 04:52:01;;;;;;;6.57;3.55;;;15.80;99.90;;;;;;4995852;28;20397;-50
2023/07/27 04:54:27;;;;;;;5.10;4.30;;;15.90;99.90;;;;;;4995669;28;20077;-49
2023/07/27 04:56:52;;;;;;;5.15;3.47;;;15.80;99.90;;;;;;4995644;28;20099;-48
2023/07/27 04:59:18;;;;;;;10.48;3.75;;;15.90;99.90;;;;;;4995237;28;20040;-48
2023/07/27 05:01:43;;;;;;;6.40;3.83;;;15.90;99.90;;;;;;4995619;28;20034;-48
2023/07/27 05:04:09;;;;;;;7.93;4.40;;;15.90;99.90;;;;;;4995515;28;20076;-49
2023/07/27 05:06:35;;;;;;;11.20;3.92;;;15.90;99.90;;;;;;4995996;28;20092;-51
2023/07/27 05:09:00;;;;;;;4.32;3.75;;;15.90;99.90;;;;;;4995868;28;20042;-51
2023/07/27 05:11:27;;;;;;;5.40;4.05;;;16.00;99.90;;;;;;4995352;28;20022;-52
2023/07/27 05:13:52;;;;;;;14.43;4.10;;;16.00;99.90;;;;;;4995236;28;20520;-53
2023/07/27 05:16:18;;;;;;;5.60;3.50;;;16.00;99.90;;;;;;4995100;28;20026;-52
2023/07/27 05:18:43;;;;;;;16.00;3.95;;;16.00;99.90;;;;;;4994883;28;20034;-50
2023/07/27 05:21:09;;;;;;;8.30;3.83;;;15.90;99.90;;;;;;4995034;28;20101;-51
2023/07/27 05:23:34;;;;;;;9.88;4.30;;;16.10;99.90;;;;;;4994883;28;20052;-50
2023/07/27 05:26:00;;;;;;;5.47;4.13;;;16.20;99.90;;;;;;4994918;28;20457;-50
2023/07/27 05:28:26;;;;;;;7.55;4.30;;;16.10;99.90;;;;;;4993305;28;20020;-49
2023/07/27 05:30:51;;;;;;;7.95;3.90;;;16.10;99.90;;;;;;4994897;28;20021;-51
2023/07/27 05:33:17;;;;;;;6.50;4.00;;;16.10;99.90;;;;;;4994804;28;20027;-51
2023/07/27 05:35:48;;;;;;;8.07;4.22;;;16.10;99.90;;;;;;4994698;28;20472;-53
2023/07/27 05:38:13;;;;;;;9.75;4.05;;;16.20;99.90;;;;;;4994388;28;20023;-50
2023/07/27 05:40:39;;;;;;;5.55;3.72;;;16.20;99.90;;;;;;4994620;28;20087;-48
2023/07/27 05:43:05;;;;;;;6.10;4.18;;;16.20;99.90;;;;;;4993448;28;20034;-50
2023/07/27 05:45:30;;;;;;;8.57;4.15;;;16.20;99.90;;;;;;4994683;28;20027;-49
2023/07/27 05:47:56;;;;;;;7.82;4.20;;;16.20;99.90;;;;;;4994435;28;20022;-48
2023/07/27 05:50:21;;;;;;;4.18;3.55;;;16.30;99.90;;;;;;4994630;28;20029;-53
2023/07/27 05:52:47;;;;;;;7.35;4.00;;;16.20;99.90;;;;;;4994693;28;20037;-50
2023/07/27 05:55:12;;;;;;;6.20;3.67;;;16.20;99.90;;;;;;4994665;28;20030;-51
2023/07/27 05:57:41;;;;;;;5.88;3.88;;;16.20;99.90;;;;;;4994324;28;20490;-49
2023/07/27 06:00:07;;;;;;;6.18;4.03;;;16.20;99.90;;;;;;4994411;28;20030;-48
2023/07/27 06:02:33;;;;;;;6.72;3.72;;;16.20;99.90;;;;;;4994353;28;20110;-52
2023/07/27 06:04:58;;;;;;;5.35;4.53;;;16.20;99.90;;;;;;4994184;28;20113;-48
2023/07/27 06:07:25;;;;;;;7.10;3.45;;;16.30;99.90;;;;;;4992603;28;20023;-50
2023/07/27 06:09:51;;;;;;;7.70;4.18;;;16.30;99.90;;;;;;4993889;28;20018;-48
2023/07/27 06:12:17;;;;;;;6.25;4.00;;;16.30;99.90;;;;;;4994135;28;20046;-49
2023/07/27 06:14:44;;;;;;;6.75;4.47;;;16.40;99.90;;;;;;4993992;28;20026;-48
2023/07/27 06:17:09;;;;;;;6.82;3.70;;;16.30;99.90;;;;;;4994003;28;20023;-48
2023/07/27 06:19:35;;;;;;;7.38;4.10;;;16.30;99.90;;;;;;4993679;28;20053;-52
2023/07/27 06:22:01;;;;;;;8.85;4.50;;;16.30;99.90;;;;;;4994037;28;20030;-52
2023/07/27 06:24:26;;;;;;;5.97;4.00;;;16.30;99.90;;;;;;4993800;28;20157;-49
2023/07/27 06:26:52;;;;;;;9.25;4.25;;;16.20;99.90;;;;;;4993875;28;20033;-49
2023/07/27 06:29:17;;;;;;;9.40;4.75;;;16.10;99.90;;;;;;4993729;28;20027;-50
2023/07/27 06:31:43;;;;;;;5.32;3.58;;;16.20;99.90;;;;;;4994088;28;20073;-49
2023/07/27 06:34:08;;;;;;;7.70;4.35;;;16.10;99.90;;;;;;4993865;28;20043;-49
2023/07/27 06:36:34;;;;;;;8.05;4.95;;;16.10;99.90;;;;;;4994142;28;20029;-48
2023/07/27 06:38:59;;;;;;;6.85;4.03;;;16.00;99.90;;;;;;4993658;28;20525;-47
2023/07/27 06:41:25;;;;;;;9.75;4.18;;;16.10;99.90;;;;;;4993814;28;20030;-51
2023/07/27 06:43:54;;;;;;;6.63;4.00;;;16.00;99.90;;;;;;4992422;28;20453;-48
2023/07/27 06:46:20;;;;;;;5.20;3.92;;;16.00;99.90;;;;;;4993729;28;20097;-55
2023/07/27 06:48:46;;;;;;;6.95;4.57;;;16.00;99.90;;;;;;4993266;28;20057;-48
2023/07/27 06:51:15;;;;;;;7.63;3.88;;;16.00;99.90;;;;;;4993903;28;20054;-51
2023/07/27 06:53:40;;;;;;;9.80;3.92;;;16.10;99.90;;;;;;4993551;28;20042;-48
2023/07/27 06:56:06;;;;;;;4.88;3.80;;;16.10;99.90;;;;;;4993634;28;20037;-50
2023/07/27 06:58:32;;;;;;;7.78;3.90;;;16.10;99.90;;;;;;4993160;28;20069;-49
2023/07/27 07:00:58;;;;;;;6.40;4.25;;;16.10;99.90;;;;;;4992858;28;20034;-50
2023/07/27 07:03:24;;;;;;;5.13;4.05;;;16.10;99.90;;;;;;4993327;28;20030;-51
2023/07/27 07:05:49;;;;;;;13.43;4.90;;;16.10;99.90;;;;;;4993414;28;20424;-47
2023/07/27 07:08:15;;;;;;;10.85;4.97;;;16.20;99.90;;;;;;4992885;28;20026;-47
2023/07/27 07:10:40;;;;;;;7.82;4.15;;;16.10;99.90;;;;;;4993282;28;20022;-50
2023/07/27 07:13:06;;;;;;;7.68;4.97;;;16.20;99.90;;;;;;4993635;28;20029;-53
2023/07/27 07:15:32;;;;;;;6.05;4.55;;;16.20;99.90;;;;;;4991624;28;20113;-49
2023/07/27 07:17:57;;;;;;;10.93;5.10;;;16.20;99.90;;;;;;4992487;28;20041;-47
2023/07/27 07:20:23;;;;;;;19.42;12.27;;;16.20;99.90;;;;;;4992318;28;20528;-48
2023/07/27 07:22:49;;;;;;;166.32;105.95;;;16.10;99.90;;;;;;4992845;28;20030;-49
2023/07/27 07:25:15;;;;;;;9.95;6.60;;;16.10;99.90;;;;;;4992803;28;20031;-47
2023/07/27 07:27:40;;;;;;;10.68;5.18;;;16.20;99.90;;;;;;4992480;28;20505;-48
2023/07/27 07:30:06;;;;;;;6.30;4.97;;;16.10;99.90;;;;;;4992530;28;20037;-48
2023/07/27 07:32:33;;;;;;;11.20;4.97;;;16.10;99.90;;;;;;4992751;28;20024;-51
2023/07/27 07:34:59;;;;;;;7.78;5.25;;;16.00;99.90;;;;;;4992786;28;20018;-48
2023/07/27 07:37:24;;;;;;;8.25;5.00;;;16.00;99.90;;;;;;4992569;28;20038;-51
2023/07/27 07:39:50;;;;;;;6.55;4.95;;;16.00;99.90;;;;;;4992776;28;20030;-53
2023/07/27 07:42:15;;;;;;;10.65;5.13;;;16.00;99.90;;;;;;4992758;28;20041;-51
2023/07/27 07:44:41;;;;;;;8.93;5.32;;;16.20;99.90;;;;;;4992375;28;20041;-48
2023/07/27 07:47:06;;;;;;;13.00;4.80;;;15.90;99.90;;;;;;4992408;28;20034;-49
2023/07/27 07:49:32;;;;;;;9.85;5.15;;;15.90;99.90;;;;;;4992102;28;20022;-49
2023/07/27 07:51:57;;;;;;;7.68;5.07;;;16.00;99.90;;;;;;4992523;28;20094;-49
2023/07/27 07:54:23;;;;;;;9.30;5.65;;;15.90;99.90;;;;;;4992417;28;20030;-51
2023/07/27 07:56:49;;;;;;;9.10;5.45;;;15.90;99.90;;;;;;4992402;28;20030;-47
2023/07/27 07:59:15;;;;;;;7.43;5.18;;;15.90;99.90;;;;;;4990637;28;20425;-54
2023/07/27 08:01:41;;;;;;;7.57;5.82;;;15.90;99.90;;;;;;4984228;28;20027;-53
2023/07/27 08:04:07;;;;;;;11.85;6.05;;;15.90;99.90;;;;;;4987937;28;20040;-53
2023/07/27 08:06:33;;;;;;;7.82;5.68;;;15.80;99.90;;;;;;4991726;28;20101;-53
2023/07/27 08:08:59;;;;;;;12.20;5.75;;;15.80;99.90;;;;;;4995514;28;20018;-48
2023/07/27 08:11:24;;;;;;;7.22;5.82;;;15.70;99.90;;;;;;5004056;28;20057;-49
2023/07/27 08:13:50;;;;;;;8.18;6.43;;;15.80;99.90;;;;;;5010693;28;20121;-51
2023/07/27 08:16:15;;;;;;;11.02;5.95;;;15.70;99.90;;;;;;5011675;28;20057;-48
2023/07/27 08:18:41;;;;;;;7.50;6.35;;;15.70;99.90;;;;;;5011393;28;20105;-52
2023/07/27 08:21:08;;;;;;;13.13;6.57;;;15.80;99.90;;;;;;4994585;28;20073;-53
2023/07/27 08:23:34;;;;;;;11.15;6.43;;;15.60;99.90;;;;;;4992160;28;20022;-53
2023/07/27 08:26:01;;;;;;;15.98;9.55;;;15.60;99.90;;;;;;4992141;28;20486;-53
2023/07/27 08:28:27;;;;;;;10.65;7.63;;;15.60;99.90;;;;;;4991770;28;20429;-48
2023/07/27 08:30:53;;;;;;;6.88;6.13;;;15.80;99.90;;;;;;4988911;28;20943;-48
2023/07/27 08:33:19;;;;;;;12.05;7.55;;;15.80;99.90;;;;;;4991556;28;20026;-54
2023/07/27 08:35:46;;;;;;;7.32;5.93;;;15.70;99.90;;;;;;4990865;28;20576;-50
2023/07/27 08:38:12;;;;;;;10.43;5.85;;;15.70;99.90;;;;;;4991862;28;20022;-51
2023/07/27 08:40:37;;;;;;;6.10;5.60;;;15.70;99.90;;;;;;4991983;28;20034;-49
2023/07/27 08:43:04;;;;;;;9.13;5.85;;;15.70;99.90;;;;;;5001790;28;20088;-49
2023/07/27 08:45:30;;;;;;;5.97;5.38;;;15.80;99.90;;;;;;5005548;28;20026;-48
2023/07/27 08:47:56;;;;;;;9.13;5.60;;;15.80;99.90;;;;;;4992034;28;20130;-51
2023/07/27 08:50:22;;;;;;;6.65;5.35;;;15.80;99.90;;;;;;4992022;28;20022;-52
2023/07/27 08:52:48;;;;;;;7.95;5.50;;;15.80;99.90;;;;;;4991854;28;20105;-51
2023/07/27 08:55:15;;;;;;;11.00;5.93;;;15.80;99.90;;;;;;4991828;28;20022;-47
2023/07/27 08:57:41;;;;;;;5.57;4.28;;;15.80;99.90;;;;;;4991676;28;20089;-47
2023/07/27 09:00:09;;;;;;;5.82;4.60;;;15.80;99.90;;;;;;4991900;28;20026;-49
2023/07/27 09:02:35;;;;;;;6.88;5.10;;;15.80;99.90;;;;;;4992290;28;20023;-49
2023/07/27 09:05:01;;;;;;;6.88;5.60;;;15.80;99.90;;;;;;4991834;28;20042;-48
2023/07/27 09:07:26;;;;;;;11.27;5.93;;;15.90;99.90;;;;;;4989371;28;20300;-50
2023/07/27 09:09:53;;;;;;;6.47;5.88;;;15.80;99.90;;;;;;5005265;28;20026;-49
2023/07/27 09:12:21;;;;;;;7.30;5.57;;;15.90;99.90;;;;;;4989405;28;20034;-49
2023/07/27 09:14:47;;;;;;;13.60;6.55;;;15.90;99.90;;;;;;4991778;28;20072;-49
2023/07/27 09:17:13;;;;;;;10.50;5.93;;;15.90;99.90;;;;;;4991554;28;20026;-53
2023/07/27 09:19:41;;;;;;;9.38;5.22;;;16.00;99.90;;;;;;4991616;28;20030;-50
2023/07/27 09:22:07;;;;;;;7.45;5.95;;;16.30;99.90;;;;;;4990019;28;20493;-51
2023/07/27 09:24:34;;;;;;;7.18;5.05;;;16.10;99.90;;;;;;4992831;28;20030;-55
2023/07/27 09:27:03;;;;;;;6.97;5.65;;;16.20;99.90;;;;;;4994919;28;20018;-51
2023/07/27 09:29:29;;;;;;;6.93;5.18;;;16.20;99.90;;;;;;4991982;28;20088;-49
2023/07/27 09:32:00;;;;;;;6.40;5.72;;;16.30;99.90;;;;;;4993905;28;20018;-49
2023/07/27 09:34:31;;;;;;;5.78;5.13;;;16.60;99.90;;;;;;4995114;28;20029;-52
2023/07/27 09:37:02;;;;;;;9.10;4.65;;;16.30;99.90;;;;;;4994851;28;20033;-49
2023/07/27 09:39:29;;;;;;;7.70;5.00;;;16.40;99.90;;;;;;4993015;28;20045;-49
2023/07/27 09:41:55;;;;;;;8.60;4.85;;;16.40;99.90;;;;;;5005021;28;20065;-49
2023/07/27 09:44:21;;;;;;;5.00;4.15;;;16.40;99.90;;;;;;5014326;28;20085;-49
2023/07/27 09:46:47;;;;;;;4.32;3.55;;;16.50;99.90;;;;;;4997506;28;20627;-51
2023/07/27 09:49:17;;;;;;;6.43;4.57;;;16.60;99.90;;;;;;4992979;28;20505;-51
2023/07/27 09:51:43;;;;;;;4.93;4.10;;;16.70;99.90;;;;;;5000425;28;20014;-58
2023/07/27 09:54:11;;;;;;;7.10;4.55;;;16.60;99.90;;;;;;4996347;28;20035;-52
2023/07/27 09:56:37;;;;;;;5.68;4.15;;;16.70;99.90;;;;;;4988635;28;20026;-59
2023/07/27 09:59:02;;;;;;;4.20;3.75;;;16.70;99.90;;;;;;4999688;28;20470;-55
2023/07/27 10:01:28;;;;;;;6.13;3.72;;;16.70;99.90;;;;;;4993753;28;20169;-48
2023/07/27 10:04:02;;;;;;;5.88;4.53;;;16.70;99.90;;;;;;4993437;28;20102;-52
2023/07/27 10:06:29;;;;;;;5.73;3.80;;;16.70;99.90;;;;;;4993947;28;20402;-53
2023/07/27 10:08:55;;;;;;;10.98;4.43;;;16.60;99.90;;;;;;4993171;28;20030;-55
2023/07/27 10:11:30;;;;;;;9.68;4.03;;;16.60;99.90;;;;;;4991595;28;20029;-58
2023/07/27 10:13:57;;;;;;;6.83;3.90;;;16.60;99.90;;;;;;4992224;28;20069;-55
2023/07/27 10:16:27;;;;;;;7.15;3.40;;;16.60;99.90;;;;;;4992923;28;20391;-53
2023/07/27 10:18:55;;;;;;;6.05;3.80;;;16.60;99.90;;;;;;4992498;28;20084;-61
2023/07/27 10:21:20;;;;;;;4.40;3.40;;;16.60;99.90;;;;;;4993510;28;20034;-55
2023/07/27 10:24:19;;;;;;;4.22;3.83;;;16.60;99.90;;;;;;4993033;28;20402;-62
2023/07/27 10:26:52;;;;;;;7.93;4.00;;;16.60;99.90;;;;;;4992851;28;20018;-59
2023/07/27 10:29:22;;;;;;;6.50;4.40;;;16.70;99.90;;;;;;4992797;28;20022;-60
2023/07/27 10:32:02;;;;;;;3.88;3.55;;;16.80;99.90;;;;;;4993532;28;20014;-58
2023/07/27 10:34:29;;;;;;;12.70;4.53;;;16.80;99.90;;;;;;4993043;28;20093;-63
2023/07/27 10:37:03;;;;;;;9.07;4.70;;;16.90;99.90;;;;;;4992287;28;20410;-56
2023/07/27 10:39:41;;;;;;;5.18;4.68;;;16.80;99.90;;;;;;4992473;28;20022;-58
2023/07/27 10:42:09;;;;;;;6.57;4.82;;;16.80;99.90;;;;;;4993102;28;20022;-50
2023/07/27 10:44:42;;;;;;;7.25;5.13;;;16.80;99.90;;;;;;4991666;28;20049;-56
2023/07/27 10:47:20;;;;;;;10.80;4.85;;;16.70;99.90;;;;;;4992940;28;20097;-55
2023/07/27 10:49:48;;;;;;;10.77;5.32;;;16.70;99.90;;;;;;4992915;28;20046;-55
2023/07/27 10:52:19;;;;;;;10.82;5.68;;;16.60;99.90;;;;;;4992313;28;20049;-52
2023/07/27 10:54:45;;;;;;;10.68;5.32;;;16.70;99.90;;;;;;4992648;28;20456;-50
2023/07/27 10:57:13;;;;;;;6.93;5.75;;;16.50;99.90;;;;;;4992319;28;20449;-57
2023/07/27 10:59:40;;;;;;;8.02;5.60;;;16.50;99.90;;;;;;4992485;28;20513;-51
2023/07/27 11:02:12;;;;;;;8.77;5.60;;;16.50;99.90;;;;;;4994101;28;20461;-51
2023/07/27 11:04:39;;;;;;;8.55;4.93;;;16.50;99.90;;;;;;5000825;28;20548;-55
2023/07/27 11:07:05;;;;;;;7.57;6.38;;;16.60;99.90;;;;;;5011358;28;20026;-54
2023/07/27 11:09:31;;;;;;;7.22;5.75;;;16.60;99.90;;;;;;5000744;28;20077;-51
2023/07/27 11:12:04;;;;;;;11.80;6.32;;;16.70;99.90;;;;;;4990952;28;20027;-55
2023/07/27 11:14:30;;;;;;;8.20;5.80;;;16.60;99.90;;;;;;4997662;28;20025;-53
2023/07/27 11:16:55;;;;;;;10.98;6.47;;;16.60;99.90;;;;;;4995935;28;20053;-51
2023/07/27 11:19:23;;;;;;;11.27;6.80;;;16.40;99.90;;;;;;4984630;28;20034;-50
2023/07/27 11:21:49;;;;;;;11.95;6.38;;;16.80;99.90;;;;;;4991037;28;20066;-53
2023/07/27 11:24:16;;;;;;;9.20;6.78;;;16.70;99.90;;;;;;4995533;28;20465;-50
2023/07/27 11:26:41;;;;;;;9.07;6.75;;;16.70;99.90;;;;;;4991886;28;20015;-49
2023/07/27 11:29:08;;;;;;;10.35;7.35;;;16.60;99.90;;;;;;4991862;28;20513;-52
2023/07/27 11:31:33;;;;;;;12.77;8.10;;;16.70;99.90;;;;;;4991918;28;20030;-50
2023/07/27 11:34:01;;;;;;;11.07;7.10;;;16.50;99.90;;;;;;4993458;28;20026;-60
2023/07/27 11:36:30;;;;;;;10.77;7.80;;;16.60;99.90;;;;;;4995615;28;20113;-63
2023/07/27 11:38:57;;;;;;;11.52;7.07;;;16.60;99.90;;;;;;4976309;28;20511;-58
2023/07/27 11:41:26;;;;;;;9.35;6.63;;;16.60;99.90;;;;;;4985150;28;20026;-53
2023/07/27 11:43:54;;;;;;;11.65;7.70;;;16.60;99.90;;;;;;4991872;28;20113;-48
2023/07/27 11:46:20;;;;;;;14.13;6.82;;;16.70;99.90;;;;;;4991648;28;20014;-57
2023/07/27 11:48:50;;;;;;;8.13;6.63;;;16.60;99.90;;;;;;4991503;28;20018;-50
2023/07/27 11:51:17;;;;;;;10.30;7.13;;;16.60;99.90;;;;;;4991511;28;20504;-50
2023/07/27 11:53:46;;;;;;;13.07;7.20;;;16.70;99.90;;;;;;4991812;28;20022;-56
2023/07/27 11:56:12;;;;;;;14.77;6.95;;;16.70;99.90;;;;;;4991438;28;20023;-51
2023/07/27 11:58:43;;;;;;;12.73;6.95;;;16.70;99.90;;;;;;4990153;28;20028;-51
2023/07/27 12:01:10;;;;;;;12.25;7.53;;;16.70;99.90;;;;;;4991404;28;20494;-57
2023/07/27 12:03:38;;;;;;;11.98;7.30;;;16.70;99.90;;;;;;4991661;28;20057;-55
2023/07/27 12:06:04;;;;;;;11.43;6.80;;;16.80;99.90;;;;;;4992565;28;20540;-56
2023/07/27 12:08:30;;;;;;;11.70;6.82;;;16.80;99.90;;;;;;4998416;28;20030;-59
2023/07/27 12:11:00;;;;;;;13.77;6.90;;;16.80;99.90;;;;;;5001429;28;20046;-52
2023/07/27 12:13:26;;;;;;;12.60;6.50;;;16.90;99.90;;;;;;4990071;28;20478;-58
2023/07/27 12:16:03;;;;;;;10.50;7.10;;;16.90;99.90;;;;;;4986708;28;20031;-57
2023/07/27 12:18:30;;;;;;;8.25;6.03;;;16.80;99.90;;;;;;4970213;28;20027;-54
2023/07/27 12:20:57;;;;;;;8.95;6.30;;;16.90;99.90;;;;;;5025858;23;20053;-51
2023/07/27 12:23:25;;;;;;;13.85;6.63;;;16.90;99.90;;;;;;4992387;28;20153;-56
2023/07/27 12:25:52;;;;;;;14.85;7.03;;;16.90;99.90;;;;;;4995939;28;20061;-52
2023/07/27 12:28:18;;;;;;;8.85;6.18;;;16.90;99.90;;;;;;4993141;28;20026;-45
2023/07/27 12:30:44;;;;;;;12.07;6.93;;;17.00;99.90;;;;;;4986098;28;20121;-51
2023/07/27 12:33:10;;;;;;;8.00;7.00;;;17.00;99.90;;;;;;5011276;28;20049;-53
2023/07/27 12:35:36;;;;;;;7.57;6.43;;;17.40;99.90;;;;;;4993428;28;20026;-49
2023/07/27 12:38:01;;;;;;;8.80;7.40;;;17.10;99.90;;;;;;4993152;28;20409;-57
2023/07/27 12:40:27;;;;;;;9.82;6.32;;;17.00;99.90;;;;;;5010899;28;20079;-46
2023/07/27 12:42:53;;;;;;;9.43;7.00;;;16.90;99.90;;;;;;5010494;28;20048;-54
2023/07/27 12:45:19;;;;;;;8.88;7.03;;;17.00;99.90;;;;;;5010693;28;20092;-55